sensor_id;sensor_type;location;lat;lon;timestamp;P1;durP1;ratioP1;P2;durP2;ratioP2
39218;SDS011;24934;52.752;6.964;2023-05-20T00:00:40;14.55;;;8.93;;
39218;SDS011;24934;52.752;6.964;2023-05-20T00:03:05;14.85;;;9.90;;
39218;SDS011;24934;52.752;6.964;2023-05-20T00:05:31;14.40;;;9.50;;
39218;SDS011;24934;52.752;6.964;2023-05-20T00:07:57;12.43;;;9.10;;
39218;SDS011;24934;52.752;6.964;2023-05-20T00:10:23;16.20;;;10.50;;
39218;SDS011;24934;52.752;6.964;2023-05-20T00:12:49;15.32;;;9.20;;
39218;SDS011;24934;52.752;6.964;2023-05-20T00:15:15;14.38;;;10.30;;
39218;SDS011;24934;52.752;6.964;2023-05-20T00:17:40;11.80;;;9.45;;
39218;SDS011;24934;52.752;6.964;2023-05-20T00:20:06;13.55;;;10.95;;
39218;SDS011;24934;52.752;6.964;2023-05-20T00:22:35;15.10;;;10.13;;
39218;SDS011;24934;52.752;6.964;2023-05-20T00:25:00;16.38;;;11.10;;
39218;SDS011;24934;52.752;6.964;2023-05-20T00:27:26;14.13;;;10.35;;
39218;SDS011;24934;52.752;6.964;2023-05-20T00:29:51;14.32;;;11.57;;
39218;SDS011;24934;52.752;6.964;2023-05-20T00:32:17;16.08;;;10.15;;
39218;SDS011;24934;52.752;6.964;2023-05-20T00:34:43;14.63;;;9.68;;
39218;SDS011;24934;52.752;6.964;2023-05-20T00:37:09;11.55;;;9.73;;
39218;SDS011;24934;52.752;6.964;2023-05-20T00:39:35;12.48;;;9.57;;
39218;SDS011;24934;52.752;6.964;2023-05-20T00:42:00;15.63;;;9.73;;
39218;SDS011;24934;52.752;6.964;2023-05-20T00:44:27;14.90;;;9.13;;
39218;SDS011;24934;52.752;6.964;2023-05-20T00:46:53;14.00;;;9.77;;
39218;SDS011;24934;52.752;6.964;2023-05-20T00:49:19;12.73;;;9.73;;
39218;SDS011;24934;52.752;6.964;2023-05-20T00:51:47;17.23;;;10.90;;
39218;SDS011;24934;52.752;6.964;2023-05-20T00:54:13;12.07;;;10.20;;
39218;SDS011;24934;52.752;6.964;2023-05-20T00:56:39;15.40;;;10.45;;
39218;SDS011;24934;52.752;6.964;2023-05-20T00:59:05;14.57;;;9.65;;
39218;SDS011;24934;52.752;6.964;2023-05-20T01:01:31;15.75;;;9.75;;
39218;SDS011;24934;52.752;6.964;2023-05-20T01:03:57;15.35;;;10.10;;
39218;SDS011;24934;52.752;6.964;2023-05-20T01:06:24;14.32;;;10.35;;
39218;SDS011;24934;52.752;6.964;2023-05-20T01:08:52;18.67;;;10.70;;
39218;SDS011;24934;52.752;6.964;2023-05-20T01:14:11;12.35;;;8.75;;
39218;SDS011;24934;52.752;6.964;2023-05-20T01:16:38;15.32;;;9.60;;
39218;SDS011;24934;52.752;6.964;2023-05-20T01:19:06;13.30;;;9.70;;
39218;SDS011;24934;52.752;6.964;2023-05-20T01:21:45;18.00;;;9.57;;
39218;SDS011;24934;52.752;6.964;2023-05-20T01:24:12;14.18;;;9.48;;
39218;SDS011;24934;52.752;6.964;2023-05-20T01:26:38;15.55;;;9.50;;
39218;SDS011;24934;52.752;6.964;2023-05-20T01:29:04;15.07;;;9.65;;
39218;SDS011;24934;52.752;6.964;2023-05-20T01:31:31;12.82;;;10.40;;
39218;SDS011;24934;52.752;6.964;2023-05-20T01:34:02;15.85;;;9.73;;
39218;SDS011;24934;52.752;6.964;2023-05-20T01:36:28;14.38;;;9.50;;
39218;SDS011;24934;52.752;6.964;2023-05-20T01:38:56;16.90;;;9.25;;
39218;SDS011;24934;52.752;6.964;2023-05-20T01:41:23;16.30;;;8.38;;
39218;SDS011;24934;52.752;6.964;2023-05-20T01:43:50;16.17;;;9.02;;
39218;SDS011;24934;52.752;6.964;2023-05-20T01:46:18;15.55;;;9.43;;
39218;SDS011;24934;52.752;6.964;2023-05-20T01:48:44;14.23;;;9.70;;
39218;SDS011;24934;52.752;6.964;2023-05-20T01:51:10;12.40;;;9.00;;
39218;SDS011;24934;52.752;6.964;2023-05-20T01:53:35;14.50;;;9.27;;
39218;SDS011;24934;52.752;6.964;2023-05-20T01:56:01;13.90;;;9.55;;
39218;SDS011;24934;52.752;6.964;2023-05-20T01:58:29;15.13;;;9.02;;
39218;SDS011;24934;52.752;6.964;2023-05-20T02:00:55;11.70;;;9.07;;
39218;SDS011;24934;52.752;6.964;2023-05-20T02:03:20;13.00;;;8.60;;
39218;SDS011;24934;52.752;6.964;2023-05-20T02:05:46;15.20;;;9.20;;
39218;SDS011;24934;52.752;6.964;2023-05-20T02:08:12;13.82;;;9.27;;
39218;SDS011;24934;52.752;6.964;2023-05-20T02:10:37;11.32;;;8.98;;
39218;SDS011;24934;52.752;6.964;2023-05-20T02:13:03;14.32;;;9.32;;
39218;SDS011;24934;52.752;6.964;2023-05-20T02:15:29;10.70;;;8.73;;
39218;SDS011;24934;52.752;6.964;2023-05-20T02:17:54;14.05;;;9.15;;
39218;SDS011;24934;52.752;6.964;2023-05-20T02:20:21;12.15;;;8.98;;
39218;SDS011;24934;52.752;6.964;2023-05-20T02:22:47;17.85;;;10.02;;
39218;SDS011;24934;52.752;6.964;2023-05-20T02:25:13;12.27;;;9.20;;
39218;SDS011;24934;52.752;6.964;2023-05-20T02:27:38;11.70;;;9.85;;
39218;SDS011;24934;52.752;6.964;2023-05-20T02:30:05;11.20;;;9.27;;
39218;SDS011;24934;52.752;6.964;2023-05-20T02:32:32;9.70;;;8.55;;
39218;SDS011;24934;52.752;6.964;2023-05-20T02:34:57;11.10;;;8.57;;
39218;SDS011;24934;52.752;6.964;2023-05-20T02:37:23;13.77;;;9.02;;
39218;SDS011;24934;52.752;6.964;2023-05-20T02:39:49;12.25;;;9.25;;
39218;SDS011;24934;52.752;6.964;2023-05-20T02:42:14;11.27;;;8.88;;
39218;SDS011;24934;52.752;6.964;2023-05-20T02:44:40;9.30;;;7.95;;
39218;SDS011;24934;52.752;6.964;2023-05-20T02:47:05;11.65;;;8.07;;
39218;SDS011;24934;52.752;6.964;2023-05-20T02:49:31;10.23;;;8.07;;
39218;SDS011;24934;52.752;6.964;2023-05-20T02:51:56;16.23;;;8.25;;
39218;SDS011;24934;52.752;6.964;2023-05-20T02:54:22;14.35;;;7.97;;
39218;SDS011;24934;52.752;6.964;2023-05-20T02:56:48;10.77;;;8.27;;
39218;SDS011;24934;52.752;6.964;2023-05-20T02:59:13;15.00;;;8.00;;
39218;SDS011;24934;52.752;6.964;2023-05-20T03:01:41;12.75;;;8.85;;
39218;SDS011;24934;52.752;6.964;2023-05-20T03:04:07;11.43;;;8.40;;
39218;SDS011;24934;52.752;6.964;2023-05-20T03:06:33;16.27;;;9.20;;
39218;SDS011;24934;52.752;6.964;2023-05-20T03:08:58;11.30;;;8.80;;
39218;SDS011;24934;52.752;6.964;2023-05-20T03:11:24;13.07;;;9.25;;
39218;SDS011;24934;52.752;6.964;2023-05-20T03:13:50;15.18;;;9.48;;
39218;SDS011;24934;52.752;6.964;2023-05-20T03:16:15;11.75;;;8.57;;
39218;SDS011;24934;52.752;6.964;2023-05-20T03:18:41;12.73;;;8.52;;
39218;SDS011;24934;52.752;6.964;2023-05-20T03:21:07;10.82;;;9.13;;
39218;SDS011;24934;52.752;6.964;2023-05-20T03:23:33;13.93;;;9.20;;
39218;SDS011;24934;52.752;6.964;2023-05-20T03:25:59;11.13;;;9.05;;
39218;SDS011;24934;52.752;6.964;2023-05-20T03:28:25;14.48;;;9.48;;
39218;SDS011;24934;52.752;6.964;2023-05-20T03:30:50;9.63;;;8.65;;
39218;SDS011;24934;52.752;6.964;2023-05-20T03:33:19;10.40;;;8.60;;
39218;SDS011;24934;52.752;6.964;2023-05-20T03:35:45;11.27;;;9.23;;
39218;SDS011;24934;52.752;6.964;2023-05-20T03:38:10;11.25;;;8.93;;
39218;SDS011;24934;52.752;6.964;2023-05-20T03:40:36;9.70;;;8.70;;
39218;SDS011;24934;52.752;6.964;2023-05-20T03:43:01;13.02;;;8.75;;
39218;SDS011;24934;52.752;6.964;2023-05-20T03:45:27;9.25;;;8.30;;
39218;SDS011;24934;52.752;6.964;2023-05-20T03:47:52;11.63;;;8.37;;
39218;SDS011;24934;52.752;6.964;2023-05-20T03:50:18;14.90;;;8.70;;
39218;SDS011;24934;52.752;6.964;2023-05-20T03:52:44;13.63;;;8.83;;
39218;SDS011;24934;52.752;6.964;2023-05-20T03:55:09;10.27;;;8.53;;
39218;SDS011;24934;52.752;6.964;2023-05-20T03:57:39;8.77;;;7.90;;
39218;SDS011;24934;52.752;6.964;2023-05-20T04:00:04;10.43;;;8.30;;
39218;SDS011;24934;52.752;6.964;2023-05-20T04:02:40;10.83;;;8.50;;
39218;SDS011;24934;52.752;6.964;2023-05-20T04:05:06;11.33;;;8.23;;
39218;SDS011;24934;52.752;6.964;2023-05-20T04:07:35;11.87;;;8.93;;
39218;SDS011;24934;52.752;6.964;2023-05-20T04:10:01;11.90;;;8.20;;
39218;SDS011;24934;52.752;6.964;2023-05-20T04:12:28;9.13;;;8.23;;
39218;SDS011;24934;52.752;6.964;2023-05-20T04:14:59;12.27;;;8.40;;
39218;SDS011;24934;52.752;6.964;2023-05-20T04:17:28;10.20;;;8.87;;
39218;SDS011;24934;52.752;6.964;2023-05-20T04:19:55;11.60;;;8.83;;
39218;SDS011;24934;52.752;6.964;2023-05-20T04:22:24;11.40;;;9.00;;
39218;SDS011;24934;52.752;6.964;2023-05-20T04:24:51;12.13;;;8.40;;
39218;SDS011;24934;52.752;6.964;2023-05-20T04:27:16;10.93;;;8.20;;
39218;SDS011;24934;52.752;6.964;2023-05-20T04:29:42;13.93;;;9.07;;
39218;SDS011;24934;52.752;6.964;2023-05-20T04:32:11;9.33;;;8.43;;
39218;SDS011;24934;52.752;6.964;2023-05-20T04:34:41;11.03;;;8.13;;
39218;SDS011;24934;52.752;6.964;2023-05-20T04:37:09;9.33;;;8.40;;
39218;SDS011;24934;52.752;6.964;2023-05-20T04:39:35;12.67;;;8.43;;
39218;SDS011;24934;52.752;6.964;2023-05-20T04:42:00;9.60;;;7.80;;
39218;SDS011;24934;52.752;6.964;2023-05-20T04:44:27;10.97;;;7.87;;
39218;SDS011;24934;52.752;6.964;2023-05-20T04:46:53;10.30;;;7.17;;
39218;SDS011;24934;52.752;6.964;2023-05-20T04:49:20;7.90;;;7.10;;
39218;SDS011;24934;52.752;6.964;2023-05-20T04:51:45;9.03;;;7.40;;
39218;SDS011;24934;52.752;6.964;2023-05-20T04:54:13;12.48;;;8.13;;
39218;SDS011;24934;52.752;6.964;2023-05-20T04:56:41;9.65;;;8.02;;
39218;SDS011;24934;52.752;6.964;2023-05-20T04:59:08;7.80;;;7.03;;
39218;SDS011;24934;52.752;6.964;2023-05-20T05:01:37;9.55;;;8.15;;
39218;SDS011;24934;52.752;6.964;2023-05-20T05:04:05;8.93;;;7.57;;
39218;SDS011;24934;52.752;6.964;2023-05-20T05:06:30;9.50;;;7.45;;
39218;SDS011;24934;52.752;6.964;2023-05-20T05:08:56;9.68;;;7.45;;
39218;SDS011;24934;52.752;6.964;2023-05-20T05:11:24;7.93;;;7.13;;
39218;SDS011;24934;52.752;6.964;2023-05-20T05:13:50;8.82;;;7.68;;
39218;SDS011;24934;52.752;6.964;2023-05-20T05:16:16;9.02;;;7.57;;
39218;SDS011;24934;52.752;6.964;2023-05-20T05:18:42;7.95;;;7.22;;
39218;SDS011;24934;52.752;6.964;2023-05-20T05:21:10;7.80;;;7.10;;
39218;SDS011;24934;52.752;6.964;2023-05-20T05:23:35;8.98;;;6.25;;
39218;SDS011;24934;52.752;6.964;2023-05-20T05:26:01;8.27;;;6.57;;
39218;SDS011;24934;52.752;6.964;2023-05-20T05:28:27;9.52;;;6.68;;
39218;SDS011;24934;52.752;6.964;2023-05-20T05:30:53;6.93;;;6.22;;
39218;SDS011;24934;52.752;6.964;2023-05-20T05:33:20;6.63;;;5.90;;
39218;SDS011;24934;52.752;6.964;2023-05-20T05:35:45;9.27;;;6.00;;
39218;SDS011;24934;52.752;6.964;2023-05-20T05:38:11;6.75;;;6.05;;
39218;SDS011;24934;52.752;6.964;2023-05-20T05:40:37;7.63;;;6.03;;
39218;SDS011;24934;52.752;6.964;2023-05-20T05:43:03;8.13;;;6.30;;
39218;SDS011;24934;52.752;6.964;2023-05-20T05:45:28;6.63;;;5.85;;
39218;SDS011;24934;52.752;6.964;2023-05-20T05:47:54;7.20;;;5.68;;
39218;SDS011;24934;52.752;6.964;2023-05-20T05:50:20;6.35;;;5.47;;
39218;SDS011;24934;52.752;6.964;2023-05-20T05:52:45;6.22;;;5.63;;
39218;SDS011;24934;52.752;6.964;2023-05-20T05:55:11;6.03;;;5.53;;
39218;SDS011;24934;52.752;6.964;2023-05-20T05:57:39;7.03;;;5.50;;
39218;SDS011;24934;52.752;6.964;2023-05-20T06:00:05;6.55;;;5.95;;
39218;SDS011;24934;52.752;6.964;2023-05-20T06:02:32;7.72;;;5.50;;
39218;SDS011;24934;52.752;6.964;2023-05-20T06:05:01;7.13;;;5.70;;
39218;SDS011;24934;52.752;6.964;2023-05-20T06:07:27;5.80;;;5.35;;
39218;SDS011;24934;52.752;6.964;2023-05-20T06:09:53;6.65;;;6.05;;
39218;SDS011;24934;52.752;6.964;2023-05-20T06:12:18;6.10;;;5.50;;
39218;SDS011;24934;52.752;6.964;2023-05-20T06:14:44;6.20;;;5.60;;
39218;SDS011;24934;52.752;6.964;2023-05-20T06:17:10;9.13;;;5.53;;
39218;SDS011;24934;52.752;6.964;2023-05-20T06:19:37;6.65;;;5.25;;
39218;SDS011;24934;52.752;6.964;2023-05-20T06:22:02;5.88;;;5.38;;
39218;SDS011;24934;52.752;6.964;2023-05-20T06:24:28;5.45;;;4.93;;
39218;SDS011;24934;52.752;6.964;2023-05-20T06:26:56;6.10;;;5.50;;
39218;SDS011;24934;52.752;6.964;2023-05-20T06:29:22;6.28;;;5.63;;
39218;SDS011;24934;52.752;6.964;2023-05-20T06:31:47;7.30;;;5.68;;
39218;SDS011;24934;52.752;6.964;2023-05-20T06:34:13;6.95;;;5.63;;
39218;SDS011;24934;52.752;6.964;2023-05-20T06:36:39;6.43;;;5.78;;
39218;SDS011;24934;52.752;6.964;2023-05-20T06:39:04;6.50;;;5.82;;
39218;SDS011;24934;52.752;6.964;2023-05-20T06:41:36;6.47;;;5.88;;
39218;SDS011;24934;52.752;6.964;2023-05-20T06:44:04;6.75;;;5.78;;
39218;SDS011;24934;52.752;6.964;2023-05-20T06:46:31;6.72;;;5.85;;
39218;SDS011;24934;52.752;6.964;2023-05-20T06:48:57;8.05;;;6.15;;
39218;SDS011;24934;52.752;6.964;2023-05-20T06:51:22;7.10;;;5.95;;
39218;SDS011;24934;52.752;6.964;2023-05-20T06:53:48;6.72;;;6.13;;
39218;SDS011;24934;52.752;6.964;2023-05-20T06:56:14;7.32;;;6.43;;
39218;SDS011;24934;52.752;6.964;2023-05-20T06:58:40;7.10;;;6.35;;
39218;SDS011;24934;52.752;6.964;2023-05-20T07:01:06;7.47;;;6.75;;
39218;SDS011;24934;52.752;6.964;2023-05-20T07:03:31;10.07;;;6.93;;
39218;SDS011;24934;52.752;6.964;2023-05-20T07:05:57;12.85;;;7.60;;
39218;SDS011;24934;52.752;6.964;2023-05-20T07:08:23;12.27;;;7.00;;
39218;SDS011;24934;52.752;6.964;2023-05-20T07:10:49;8.43;;;6.90;;
39218;SDS011;24934;52.752;6.964;2023-05-20T07:13:14;8.68;;;7.10;;
39218;SDS011;24934;52.752;6.964;2023-05-20T07:15:41;9.00;;;7.20;;
39218;SDS011;24934;52.752;6.964;2023-05-20T07:18:10;8.95;;;6.90;;
39218;SDS011;24934;52.752;6.964;2023-05-20T07:20:36;7.70;;;6.90;;
39218;SDS011;24934;52.752;6.964;2023-05-20T07:23:02;8.18;;;6.80;;
39218;SDS011;24934;52.752;6.964;2023-05-20T07:25:28;7.07;;;6.35;;
39218;SDS011;24934;52.752;6.964;2023-05-20T07:27:53;8.15;;;6.82;;
39218;SDS011;24934;52.752;6.964;2023-05-20T07:30:19;7.15;;;6.53;;
39218;SDS011;24934;52.752;6.964;2023-05-20T07:32:45;7.72;;;6.60;;
39218;SDS011;24934;52.752;6.964;2023-05-20T07:35:10;7.22;;;6.63;;
39218;SDS011;24934;52.752;6.964;2023-05-20T07:37:36;7.63;;;6.95;;
39218;SDS011;24934;52.752;6.964;2023-05-20T07:40:01;7.80;;;7.05;;
39218;SDS011;24934;52.752;6.964;2023-05-20T07:42:29;7.93;;;7.25;;
39218;SDS011;24934;52.752;6.964;2023-05-20T07:44:59;8.82;;;6.60;;
39218;SDS011;24934;52.752;6.964;2023-05-20T07:47:27;7.50;;;6.43;;
39218;SDS011;24934;52.752;6.964;2023-05-20T07:49:53;9.07;;;6.75;;
39218;SDS011;24934;52.752;6.964;2023-05-20T07:52:18;6.88;;;6.20;;
39218;SDS011;24934;52.752;6.964;2023-05-20T07:54:46;7.88;;;7.05;;
39218;SDS011;24934;52.752;6.964;2023-05-20T07:57:11;7.90;;;7.10;;
39218;SDS011;24934;52.752;6.964;2023-05-20T07:59:37;9.18;;;7.05;;
39218;SDS011;24934;52.752;6.964;2023-05-20T08:02:02;8.15;;;7.35;;
39218;SDS011;24934;52.752;6.964;2023-05-20T08:04:28;10.30;;;7.35;;
39218;SDS011;24934;52.752;6.964;2023-05-20T08:06:54;8.02;;;7.22;;
39218;SDS011;24934;52.752;6.964;2023-05-20T08:09:20;7.00;;;6.40;;
39218;SDS011;24934;52.752;6.964;2023-05-20T08:11:46;7.43;;;6.80;;
39218;SDS011;24934;52.752;6.964;2023-05-20T08:14:12;8.27;;;6.90;;
39218;SDS011;24934;52.752;6.964;2023-05-20T08:16:37;7.05;;;6.45;;
39218;SDS011;24934;52.752;6.964;2023-05-20T08:19:03;7.55;;;6.75;;
39218;SDS011;24934;52.752;6.964;2023-05-20T08:21:29;7.18;;;6.57;;
39218;SDS011;24934;52.752;6.964;2023-05-20T08:23:54;7.50;;;6.75;;
39218;SDS011;24934;52.752;6.964;2023-05-20T08:26:20;7.03;;;6.38;;
39218;SDS011;24934;52.752;6.964;2023-05-20T08:28:46;7.03;;;6.43;;
39218;SDS011;24934;52.752;6.964;2023-05-20T08:31:12;9.52;;;6.60;;
39218;SDS011;24934;52.752;6.964;2023-05-20T08:33:38;9.13;;;6.22;;
39218;SDS011;24934;52.752;6.964;2023-05-20T08:36:04;7.75;;;6.90;;
39218;SDS011;24934;52.752;6.964;2023-05-20T08:38:32;7.78;;;7.07;;
39218;SDS011;24934;52.752;6.964;2023-05-20T08:40:57;8.35;;;7.55;;
39218;SDS011;24934;52.752;6.964;2023-05-20T08:43:23;8.38;;;7.45;;
39218;SDS011;24934;52.752;6.964;2023-05-20T08:45:49;8.95;;;8.10;;
39218;SDS011;24934;52.752;6.964;2023-05-20T08:48:16;8.98;;;8.27;;
39218;SDS011;24934;52.752;6.964;2023-05-20T08:50:44;8.55;;;7.70;;
39218;SDS011;24934;52.752;6.964;2023-05-20T08:53:14;7.75;;;7.05;;
39218;SDS011;24934;52.752;6.964;2023-05-20T08:55:45;8.27;;;7.57;;
39218;SDS011;24934;52.752;6.964;2023-05-20T08:58:14;9.93;;;8.48;;
39218;SDS011;24934;52.752;6.964;2023-05-20T09:00:40;9.30;;;7.65;;
39218;SDS011;24934;52.752;6.964;2023-05-20T09:03:06;8.00;;;7.40;;
39218;SDS011;24934;52.752;6.964;2023-05-20T09:05:32;8.90;;;8.00;;
39218;SDS011;24934;52.752;6.964;2023-05-20T09:08:08;8.60;;;7.60;;
39218;SDS011;24934;52.752;6.964;2023-05-20T09:10:35;8.70;;;7.90;;
39218;SDS011;24934;52.752;6.964;2023-05-20T09:13:03;13.52;;;8.02;;
39218;SDS011;24934;52.752;6.964;2023-05-20T09:15:32;9.30;;;8.30;;
39218;SDS011;24934;52.752;6.964;2023-05-20T09:18:00;8.23;;;7.47;;
39218;SDS011;24934;52.752;6.964;2023-05-20T09:20:32;7.90;;;6.78;;
39218;SDS011;24934;52.752;6.964;2023-05-20T09:23:03;10.98;;;8.43;;
39218;SDS011;24934;52.752;6.964;2023-05-20T09:25:31;7.57;;;7.03;;
39218;SDS011;24934;52.752;6.964;2023-05-20T09:27:57;7.65;;;6.90;;
39218;SDS011;24934;52.752;6.964;2023-05-20T09:30:23;9.20;;;8.40;;
39218;SDS011;24934;52.752;6.964;2023-05-20T09:32:55;8.13;;;7.43;;
39218;SDS011;24934;52.752;6.964;2023-05-20T09:35:24;9.50;;;8.63;;
39218;SDS011;24934;52.752;6.964;2023-05-20T09:37:55;8.35;;;7.65;;
39218;SDS011;24934;52.752;6.964;2023-05-20T09:40:25;9.05;;;8.20;;
39218;SDS011;24934;52.752;6.964;2023-05-20T09:42:53;8.02;;;7.20;;
39218;SDS011;24934;52.752;6.964;2023-05-20T09:45:19;8.93;;;8.13;;
39218;SDS011;24934;52.752;6.964;2023-05-20T09:47:46;11.80;;;10.40;;
39218;SDS011;24934;52.752;6.964;2023-05-20T09:50:12;8.85;;;8.05;;
39218;SDS011;24934;52.752;6.964;2023-05-20T09:52:39;9.20;;;8.40;;
39218;SDS011;24934;52.752;6.964;2023-05-20T09:55:07;10.38;;;7.78;;
39218;SDS011;24934;52.752;6.964;2023-05-20T09:57:36;10.23;;;9.32;;
39218;SDS011;24934;52.752;6.964;2023-05-20T10:00:06;9.02;;;7.80;;
39218;SDS011;24934;52.752;6.964;2023-05-20T10:02:32;9.70;;;8.98;;
39218;SDS011;24934;52.752;6.964;2023-05-20T10:05:01;9.40;;;8.40;;
39218;SDS011;24934;52.752;6.964;2023-05-20T10:07:42;9.25;;;8.35;;
39218;SDS011;24934;52.752;6.964;2023-05-20T10:10:35;10.13;;;9.32;;
39218;SDS011;24934;52.752;6.964;2023-05-20T10:13:37;10.65;;;7.38;;
39218;SDS011;24934;52.752;6.964;2023-05-20T10:16:25;10.25;;;9.45;;
39218;SDS011;24934;52.752;6.964;2023-05-20T10:21:25;13.55;;;9.75;;
39218;SDS011;24934;52.752;6.964;2023-05-20T10:23:50;8.57;;;7.88;;
39218;SDS011;24934;52.752;6.964;2023-05-20T10:26:17;9.02;;;8.13;;
39218;SDS011;24934;52.752;6.964;2023-05-20T10:28:43;9.57;;;7.10;;
39218;SDS011;24934;52.752;6.964;2023-05-20T10:31:14;9.70;;;7.97;;
39218;SDS011;24934;52.752;6.964;2023-05-20T10:33:42;9.48;;;8.68;;
39218;SDS011;24934;52.752;6.964;2023-05-20T10:36:08;8.25;;;7.55;;
39218;SDS011;24934;52.752;6.964;2023-05-20T10:38:34;8.23;;;7.60;;
39218;SDS011;24934;52.752;6.964;2023-05-20T10:41:07;8.25;;;7.45;;
39218;SDS011;24934;52.752;6.964;2023-05-20T10:43:35;7.72;;;7.03;;
39218;SDS011;24934;52.752;6.964;2023-05-20T10:46:01;8.48;;;7.70;;
39218;SDS011;24934;52.752;6.964;2023-05-20T10:50:53;8.75;;;7.95;;
39218;SDS011;24934;52.752;6.964;2023-05-20T10:53:36;9.20;;;8.30;;
39218;SDS011;24934;52.752;6.964;2023-05-20T10:56:03;9.70;;;8.85;;
39218;SDS011;24934;52.752;6.964;2023-05-20T10:58:35;9.77;;;8.75;;
39218;SDS011;24934;52.752;6.964;2023-05-20T11:01:04;8.05;;;7.07;;
39218;SDS011;24934;52.752;6.964;2023-05-20T11:03:30;8.65;;;7.85;;
39218;SDS011;24934;52.752;6.964;2023-05-20T11:06:00;8.38;;;6.97;;
39218;SDS011;24934;52.752;6.964;2023-05-20T11:08:29;7.93;;;7.13;;
39218;SDS011;24934;52.752;6.964;2023-05-20T11:10:57;7.60;;;7.00;;
39218;SDS011;24934;52.752;6.964;2023-05-20T11:13:23;9.55;;;8.68;;
39218;SDS011;24934;52.752;6.964;2023-05-20T11:15:49;9.05;;;8.20;;
39218;SDS011;24934;52.752;6.964;2023-05-20T11:18:15;12.00;;;7.93;;
39218;SDS011;24934;52.752;6.964;2023-05-20T11:20:41;8.90;;;8.10;;
39218;SDS011;24934;52.752;6.964;2023-05-20T11:23:10;8.35;;;7.65;;
39218;SDS011;24934;52.752;6.964;2023-05-20T11:25:39;10.07;;;9.15;;
39218;SDS011;24934;52.752;6.964;2023-05-20T11:28:12;11.90;;;9.80;;
39218;SDS011;24934;52.752;6.964;2023-05-20T11:30:38;10.77;;;9.68;;
39218;SDS011;24934;52.752;6.964;2023-05-20T11:33:07;10.57;;;9.77;;
39218;SDS011;24934;52.752;6.964;2023-05-20T11:35:37;9.85;;;9.15;;
39218;SDS011;24934;52.752;6.964;2023-05-20T11:38:15;10.27;;;9.38;;
39218;SDS011;24934;52.752;6.964;2023-05-20T11:40:49;9.35;;;8.55;;
39218;SDS011;24934;52.752;6.964;2023-05-20T11:43:19;9.70;;;9.00;;
39218;SDS011;24934;52.752;6.964;2023-05-20T11:45:51;11.73;;;8.05;;
39218;SDS011;24934;52.752;6.964;2023-05-20T11:48:18;9.38;;;8.50;;
39218;SDS011;24934;52.752;6.964;2023-05-20T11:50:44;9.95;;;9.13;;
39218;SDS011;24934;52.752;6.964;2023-05-20T11:53:15;11.07;;;10.10;;
39218;SDS011;24934;52.752;6.964;2023-05-20T11:55:49;10.95;;;9.82;;
39218;SDS011;24934;52.752;6.964;2023-05-20T11:58:23;9.60;;;8.90;;
39218;SDS011;24934;52.752;6.964;2023-05-20T12:00:55;9.57;;;8.60;;
39218;SDS011;24934;52.752;6.964;2023-05-20T12:03:22;10.00;;;7.93;;
39218;SDS011;24934;52.752;6.964;2023-05-20T12:05:47;8.48;;;7.80;;
39218;SDS011;24934;52.752;6.964;2023-05-20T12:08:14;10.20;;;9.25;;
39218;SDS011;24934;52.752;6.964;2023-05-20T12:10:40;9.98;;;9.18;;
39218;SDS011;24934;52.752;6.964;2023-05-20T12:13:06;10.23;;;9.25;;
39218;SDS011;24934;52.752;6.964;2023-05-20T12:15:36;7.20;;;6.68;;
39218;SDS011;24934;52.752;6.964;2023-05-20T12:18:02;8.30;;;7.47;;
39218;SDS011;24934;52.752;6.964;2023-05-20T12:20:28;8.73;;;8.00;;
39218;SDS011;24934;52.752;6.964;2023-05-20T12:23:00;9.35;;;7.38;;
39218;SDS011;24934;52.752;6.964;2023-05-20T12:25:26;8.80;;;7.90;;
39218;SDS011;24934;52.752;6.964;2023-05-20T12:27:51;9.93;;;9.10;;
39218;SDS011;24934;52.752;6.964;2023-05-20T12:30:20;9.13;;;8.35;;
39218;SDS011;24934;52.752;6.964;2023-05-20T12:32:48;17.20;;;8.85;;
39218;SDS011;24934;52.752;6.964;2023-05-20T12:35:37;7.10;;;6.50;;
39218;SDS011;24934;52.752;6.964;2023-05-20T12:38:04;11.30;;;8.98;;
39218;SDS011;24934;52.752;6.964;2023-05-20T12:40:31;8.23;;;7.05;;
39218;SDS011;24934;52.752;6.964;2023-05-20T12:42:57;7.60;;;6.90;;
39218;SDS011;24934;52.752;6.964;2023-05-20T12:45:25;7.90;;;6.95;;
39218;SDS011;24934;52.752;6.964;2023-05-20T12:47:51;9.98;;;6.60;;
39218;SDS011;24934;52.752;6.964;2023-05-20T12:50:19;8.18;;;7.43;;
39218;SDS011;24934;52.752;6.964;2023-05-20T12:52:44;7.70;;;6.60;;
39218;SDS011;24934;52.752;6.964;2023-05-20T12:55:13;9.02;;;7.30;;
39218;SDS011;24934;52.752;6.964;2023-05-20T12:57:39;9.48;;;8.68;;
39218;SDS011;24934;52.752;6.964;2023-05-20T13:00:07;9.00;;;8.02;;
39218;SDS011;24934;52.752;6.964;2023-05-20T13:02:34;6.95;;;6.15;;
39218;SDS011;24934;52.752;6.964;2023-05-20T13:05:00;7.45;;;6.70;;
39218;SDS011;24934;52.752;6.964;2023-05-20T13:07:25;7.45;;;6.72;;
39218;SDS011;24934;52.752;6.964;2023-05-20T13:09:51;8.18;;;7.53;;
39218;SDS011;24934;52.752;6.964;2023-05-20T13:12:17;7.70;;;7.10;;
39218;SDS011;24934;52.752;6.964;2023-05-20T13:14:43;11.63;;;9.23;;
39218;SDS011;24934;52.752;6.964;2023-05-20T13:17:09;9.63;;;8.48;;
39218;SDS011;24934;52.752;6.964;2023-05-20T13:19:35;8.52;;;7.78;;
39218;SDS011;24934;52.752;6.964;2023-05-20T13:22:02;10.27;;;9.40;;
39218;SDS011;24934;52.752;6.964;2023-05-20T13:24:28;7.13;;;6.63;;
39218;SDS011;24934;52.752;6.964;2023-05-20T13:26:53;8.25;;;6.95;;
39218;SDS011;24934;52.752;6.964;2023-05-20T13:29:19;7.38;;;6.78;;
39218;SDS011;24934;52.752;6.964;2023-05-20T13:31:45;8.02;;;7.32;;
39218;SDS011;24934;52.752;6.964;2023-05-20T13:34:11;9.35;;;6.82;;
39218;SDS011;24934;52.752;6.964;2023-05-20T13:36:37;8.02;;;7.43;;
39218;SDS011;24934;52.752;6.964;2023-05-20T13:39:04;7.57;;;6.97;;
39218;SDS011;24934;52.752;6.964;2023-05-20T13:41:30;7.68;;;6.97;;
39218;SDS011;24934;52.752;6.964;2023-05-20T13:43:56;8.43;;;7.00;;
39218;SDS011;24934;52.752;6.964;2023-05-20T13:46:22;8.00;;;7.30;;
39218;SDS011;24934;52.752;6.964;2023-05-20T13:48:48;8.25;;;7.32;;
39218;SDS011;24934;52.752;6.964;2023-05-20T13:51:13;7.95;;;7.15;;
39218;SDS011;24934;52.752;6.964;2023-05-20T13:53:39;7.95;;;7.30;;
39218;SDS011;24934;52.752;6.964;2023-05-20T13:56:05;8.07;;;7.38;;
39218;SDS011;24934;52.752;6.964;2023-05-20T13:58:33;8.40;;;7.60;;
39218;SDS011;24934;52.752;6.964;2023-05-20T14:01:00;7.95;;;7.30;;
39218;SDS011;24934;52.752;6.964;2023-05-20T14:03:27;9.13;;;7.28;;
39218;SDS011;24934;52.752;6.964;2023-05-20T14:05:53;10.20;;;7.47;;
39218;SDS011;24934;52.752;6.964;2023-05-20T14:08:19;8.43;;;7.30;;
39218;SDS011;24934;52.752;6.964;2023-05-20T14:10:45;7.72;;;7.00;;
39218;SDS011;24934;52.752;6.964;2023-05-20T14:13:10;7.82;;;7.05;;
39218;SDS011;24934;52.752;6.964;2023-05-20T14:15:36;9.10;;;7.47;;
39218;SDS011;24934;52.752;6.964;2023-05-20T14:18:01;8.63;;;7.88;;
39218;SDS011;24934;52.752;6.964;2023-05-20T14:20:27;7.97;;;7.35;;
39218;SDS011;24934;52.752;6.964;2023-05-20T14:22:53;7.88;;;7.18;;
39218;SDS011;24934;52.752;6.964;2023-05-20T14:25:21;7.70;;;7.00;;
39218;SDS011;24934;52.752;6.964;2023-05-20T14:27:48;7.88;;;7.28;;
39218;SDS011;24934;52.752;6.964;2023-05-20T14:30:14;8.18;;;7.57;;
39218;SDS011;24934;52.752;6.964;2023-05-20T14:32:40;10.07;;;9.18;;
39218;SDS011;24934;52.752;6.964;2023-05-20T14:35:05;9.38;;;8.48;;
39218;SDS011;24934;52.752;6.964;2023-05-20T14:37:31;8.68;;;7.88;;
39218;SDS011;24934;52.752;6.964;2023-05-20T14:39:57;9.18;;;7.47;;
39218;SDS011;24934;52.752;6.964;2023-05-20T14:42:23;8.15;;;7.35;;
39218;SDS011;24934;52.752;6.964;2023-05-20T14:44:48;7.97;;;7.30;;
39218;SDS011;24934;52.752;6.964;2023-05-20T14:47:14;8.68;;;7.90;;
39218;SDS011;24934;52.752;6.964;2023-05-20T14:49:43;9.88;;;8.07;;